LOWG/GRZ METAR and TAF weather

Enter ICAO airport designator
Station Type Date Time Source
LOWG METAR 2020/11/28 19:20 UTC NOAA

LOWG 281920Z AUTO 22003KT 170V250 6000 OVC012 M01/M02 Q1022


Station Type Date Time Source
LOWG Decoded METAR 2020/11/28 19:20 UTC NOAA

Graz-Thalerhof-Flughafen, Austria (LOWG) 47-00N 015-26E 347M
Nov 28, 2020 - 02:20 PM EST / 2020.11.28 1920 UTC
Wind: from the SW (220 degrees) at 3 MPH (3 KT) (direction variable):0
Visibility: 3 mile(s):0
Sky conditions: overcast
Temperature: 30 F (-1 C)
Dew Point: 28 F (-2 C)
Relative Humidity: 92%
Pressure (altimeter): 30.18 in. Hg (1022 hPa)
ob: LOWG 281920Z AUTO 22003KT 170V250 6000 OVC012 M01/M02 Q1022
cycle: 19

Station Type Date Time Source
LOWG TAF 2020/11/28 18:21 UTC NOAA

TAF TAF LOWG 281715Z 2818/2918 VRB04KT 6000 BKN016 TX02/2914Z TNM01/2918Z
TEMPO 2818/2820 4000 BKN004
TEMPO 2819/2910 0600 FZFG VV001 PROB30
TEMPO 2820/2906 0400 -SG
TEMPO 2910/2912 3000 BKN006
TEMPO 2912/2918 FEW020

Example: see airport list